Time;durP1;ratioP1;P1;durP2;ratioP2;P2;SDS_P1;SDS_P2;PMS_P1;PMS_P2;Temp;Humidity;BMP_temperature;BMP_pressure;BME280_temperature;BME280_humidity;BME280_pressure;Samples;Min_cycle;Max_cycle;Signal;HPM_P1;HPM_P2
2022/05/20 00:01:07;;;;;;;0.85;0.80;;;20.70;99.90;20.80;100944.00;;;;4974899;28;88630;-66
2022/05/20 00:03:37;;;;;;;1.08;0.98;;;20.70;99.90;20.70;100958.00;;;;4920136;28;90129;-66
2022/05/20 00:06:02;;;;;;;1.50;0.80;;;20.60;99.90;20.70;100952.00;;;;4954714;28;87947;-66
2022/05/20 00:08:28;;;;;;;1.65;1.25;;;20.50;99.90;20.60;100955.00;;;;4959117;28;100094;-68
2022/05/20 00:10:55;;;;;;;0.82;0.82;;;20.50;99.90;20.60;100956.00;;;;4957416;28;114120;-66
2022/05/20 00:13:26;;;;;;;2.17;1.33;;;20.40;99.90;20.50;100963.00;;;;4958805;28;88577;-68
2022/05/20 00:15:53;;;;;;;0.90;0.88;;;20.30;99.90;20.40;100959.00;;;;4939428;28;91220;-66
2022/05/20 00:18:19;;;;;;;1.25;0.68;;;20.30;99.90;20.40;100965.00;;;;4959161;28;87803;-67
2022/05/20 00:20:45;;;;;;;1.40;1.27;;;20.20;99.90;20.30;100962.00;;;;4958184;28;101646;-66
2022/05/20 00:23:11;;;;;;;1.85;1.13;;;20.20;99.90;20.20;100973.00;;;;4957661;28;118415;-66
2022/05/20 00:25:46;;;;;;;3.50;1.58;;;20.20;99.90;20.20;100985.00;;;;4939598;28;96999;-67
2022/05/20 00:28:19;;;;;;;2.33;1.35;;;20.10;99.90;20.10;100985.00;;;;4972657;28;87929;-67
2022/05/20 00:30:50;;;;;;;1.30;0.98;;;20.00;99.90;20.00;100983.00;;;;4958381;28;88911;-69
2022/05/20 00:33:24;;;;;;;1.35;1.00;;;19.90;99.90;19.90;100987.00;;;;4958976;28;87542;-67
2022/05/20 00:35:49;;;;;;;0.90;0.90;;;19.80;99.90;19.90;100988.00;;;;4958047;28;87935;-68
2022/05/20 00:38:26;;;;;;;2.15;1.48;;;19.80;99.90;19.80;100986.00;;;;4958077;28;109353;-68
2022/05/20 00:40:54;;;;;;;2.92;1.42;;;19.70;99.90;19.80;100991.00;;;;4939660;28;89160;-68
2022/05/20 00:43:28;;;;;;;2.40;1.25;;;19.70;99.90;19.70;100993.00;;;;4940096;28;88850;-68
2022/05/20 00:45:58;;;;;;;1.60;0.93;;;19.60;99.90;19.70;100993.00;;;;4958532;28;87855;-67
2022/05/20 00:48:24;;;;;;;1.13;0.90;;;19.60;99.90;19.60;100991.00;;;;4958644;28;87724;-67
2022/05/20 00:51:30;;;;;;;0.70;0.70;;;19.50;99.90;19.50;100988.00;;;;4958754;28;88644;-68
2022/05/20 00:54:06;;;;;;;3.97;1.70;;;19.40;99.90;19.50;100994.00;;;;4920104;28;107523;-67
2022/05/20 00:56:41;;;;;;;0.88;0.82;;;19.40;99.90;19.50;100993.00;;;;4959556;28;87577;-67
2022/05/20 00:59:16;;;;;;;2.47;0.98;;;19.30;99.90;19.40;100991.00;;;;4978823;28;86870;-66
2022/05/20 01:01:41;;;;;;;1.35;1.25;;;19.30;99.90;19.40;100988.00;;;;4943017;28;89814;-68
2022/05/20 01:04:07;;;;;;;2.25;1.20;;;19.20;99.90;19.30;100996.00;;;;4958475;28;87952;-66
2022/05/20 01:06:33;;;;;;;1.88;1.33;;;19.20;99.90;19.30;101002.00;;;;4957841;28;88690;-67
2022/05/20 01:08:59;;;;;;;0.75;0.75;;;19.10;99.90;19.20;101005.00;;;;4957487;28;108686;-67
2022/05/20 01:11:26;;;;;;;1.55;1.35;;;19.10;99.90;19.20;100999.00;;;;4957243;28;117747;-68
2022/05/20 01:13:52;;;;;;;0.45;0.45;;;19.00;99.90;19.10;101009.00;;;;4972807;28;98091;-66
2022/05/20 01:16:18;;;;;;;1.63;0.90;;;19.00;99.90;19.10;101000.00;;;;4972839;28;110147;-67
2022/05/20 01:18:53;;;;;;;2.47;0.80;;;18.90;99.90;19.00;101004.00;;;;4957553;28;109324;-67
2022/05/20 01:21:19;;;;;;;2.05;1.30;;;18.90;99.90;18.90;100996.00;;;;4972371;28;88190;-67
2022/05/20 01:23:45;;;;;;;1.70;0.98;;;18.80;99.90;18.90;100999.00;;;;4957074;28;88952;-66
2022/05/20 01:26:11;;;;;;;0.75;0.75;;;18.80;99.90;18.80;101007.00;;;;4957612;28;109866;-66
2022/05/20 01:28:37;;;;;;;0.68;0.68;;;18.70;99.90;18.80;101005.00;;;;4958221;28;87714;-66
2022/05/20 01:31:13;;;;;;;1.83;1.17;;;18.70;99.90;18.80;101017.00;;;;4958164;28;89076;-66
2022/05/20 01:33:43;;;;;;;1.23;1.13;;;18.60;99.90;18.70;101016.00;;;;4972141;28;88315;-67
2022/05/20 01:36:14;;;;;;;3.97;1.40;;;18.60;99.90;18.70;101015.00;;;;4957877;28;87711;-67
2022/05/20 01:38:40;;;;;;;0.90;0.90;;;18.50;99.90;18.60;101017.00;;;;4957969;28;88080;-67
2022/05/20 01:41:20;;;;;;;1.25;1.17;;;18.50;99.90;18.60;101016.00;;;;4957589;28;88775;-66
2022/05/20 01:44:12;;;;;;;2.67;1.30;;;18.50;99.90;18.50;101019.00;;;;4937976;28;107327;-68
2022/05/20 01:47:02;;;;;;;1.13;0.95;;;18.50;99.90;18.50;101007.00;;;;4957190;28;98182;-67
2022/05/20 01:50:20;;;;;;;1.00;1.00;;;18.40;99.90;18.40;101016.00;;;;4973401;28;86982;-68
2022/05/20 01:53:10;;;;;;;1.08;0.98;;;18.40;99.90;18.40;101010.00;;;;4937791;28;102964;-68
2022/05/20 01:55:59;;;;;;;2.15;0.90;;;18.30;99.90;18.40;101015.00;;;;4955767;28;88150;-68
2022/05/20 01:58:39;;;;;;;1.30;1.02;;;18.30;99.90;18.30;101016.00;;;;4958606;28;88741;-66
2022/05/20 02:01:12;;;;;;;1.67;0.80;;;18.20;99.90;18.30;101013.00;;;;4958315;28;101457;-67
2022/05/20 02:03:49;;;;;;;2.88;1.20;;;18.20;99.90;18.30;101013.00;;;;4939998;28;111654;-67
2022/05/20 02:06:24;;;;;;;1.13;1.13;;;18.20;99.90;18.20;101011.00;;;;4956738;28;109061;-66
2022/05/20 02:09:07;;;;;;;0.80;0.80;;;18.10;99.90;18.20;101008.00;;;;4938548;28;87819;-66
2022/05/20 02:11:48;;;;;;;1.58;0.77;;;18.10;99.90;18.20;101008.00;;;;4939482;28;87806;-67
2022/05/20 02:14:26;;;;;;;1.27;0.70;;;18.10;99.90;18.20;101007.00;;;;4935120;28;96567;-66
2022/05/20 02:17:20;;;;;;;2.45;0.88;;;18.00;99.90;18.10;101004.00;;;;4937726;28;87280;-67
2022/05/20 02:19:53;;;;;;;2.50;1.05;;;18.00;99.90;18.10;101001.00;;;;4918713;28;102022;-66
2022/05/20 02:22:24;;;;;;;1.55;1.33;;;18.00;99.90;18.10;101008.00;;;;4956326;28;88199;-66
2022/05/20 02:24:50;;;;;;;1.50;1.33;;;17.90;99.90;18.10;101012.00;;;;4937273;28;102294;-66
2022/05/20 02:27:23;;;;;;;1.35;0.93;;;17.90;99.90;18.00;101020.00;;;;4956260;28;95141;-66
2022/05/20 02:30:15;;;;;;;2.05;1.13;;;17.90;99.90;18.00;101027.00;;;;4937117;28;99833;-67
2022/05/20 02:33:06;;;;;;;1.42;0.63;;;17.90;99.90;17.90;101033.00;;;;4938253;28;87875;-67
2022/05/20 02:35:33;;;;;;;1.63;1.33;;;17.80;99.90;17.90;101027.00;;;;4937774;28;88616;-66
2022/05/20 02:38:16;;;;;;;2.03;1.25;;;17.80;99.90;17.90;101027.00;;;;4956544;28;88477;-67
2022/05/20 02:40:45;;;;;;;2.00;1.45;;;17.80;99.90;17.80;101028.00;;;;4921940;28;87525;-68
2022/05/20 02:43:12;;;;;;;1.20;1.10;;;17.70;99.90;17.80;101029.00;;;;4956880;28;87174;-67
2022/05/20 02:45:43;;;;;;;2.10;1.33;;;17.70;99.90;17.80;101031.00;;;;4955758;28;108034;-66
2022/05/20 02:48:10;;;;;;;1.05;1.00;;;17.70;99.90;17.70;101038.00;;;;4970448;28;88583;-67
2022/05/20 02:50:35;;;;;;;1.38;1.20;;;17.60;99.90;17.70;101039.00;;;;4956129;28;102674;-66
2022/05/20 02:53:01;;;;;;;2.05;1.50;;;17.60;99.90;17.60;101038.00;;;;4956277;28;87490;-67
2022/05/20 02:55:27;;;;;;;1.30;1.15;;;17.60;99.90;17.60;101027.00;;;;4952925;28;87778;-68
2022/05/20 02:57:53;;;;;;;1.33;1.23;;;17.50;99.90;17.60;101034.00;;;;4975231;28;116626;-66
2022/05/20 03:05:49;;;;;;;1.15;1.05;;;17.70;99.90;17.40;101044.00;;;;4956195;28;88205;-66
2022/05/20 03:08:15;;;;;;;2.05;1.15;;;17.30;99.90;17.40;101045.00;;;;4956392;28;89156;-66
2022/05/20 03:10:40;;;;;;;4.53;1.45;;;17.30;99.90;17.40;101032.00;;;;4955461;28;112080;-68
2022/05/20 03:13:07;;;;;;;2.05;1.33;;;17.20;99.90;17.30;101042.00;;;;4955380;28;107808;-67
2022/05/20 03:15:35;;;;;;;1.55;1.42;;;17.20;99.90;17.30;101041.00;;;;4969999;28;89110;-66
2022/05/20 03:18:00;;;;;;;2.83;1.17;;;17.20;99.90;17.20;101046.00;;;;4970777;28;88050;-66
2022/05/20 03:20:26;;;;;;;1.48;1.17;;;17.20;99.90;17.20;101047.00;;;;4955695;28;108423;-67
2022/05/20 03:22:52;;;;;;;2.10;1.67;;;17.10;99.90;17.20;101052.00;;;;4955762;28;88529;-68
2022/05/20 03:25:20;;;;;;;2.25;1.52;;;17.10;99.90;17.10;101052.00;;;;4953876;28;116762;-66
2022/05/20 03:27:47;;;;;;;2.05;1.42;;;17.10;99.90;17.10;101063.00;;;;4955912;28;87999;-69
2022/05/20 03:30:12;;;;;;;1.38;1.27;;;17.00;99.90;17.10;101059.00;;;;4956380;28;87657;-66
2022/05/20 03:32:38;;;;;;;2.05;1.15;;;17.00;99.90;17.10;101068.00;;;;4970655;28;95954;-69
2022/05/20 03:35:08;;;;;;;1.10;1.10;;;17.00;99.90;17.10;101073.00;;;;4954700;28;111100;-67
2022/05/20 03:37:34;;;;;;;1.48;1.35;;;16.90;99.90;17.00;101072.00;;;;4970703;28;87855;-67
2022/05/20 03:40:01;;;;;;;1.73;1.20;;;16.90;99.90;17.00;101064.00;;;;4955165;28;88689;-67
2022/05/20 03:42:27;;;;;;;1.58;1.48;;;16.90;99.90;17.00;101080.00;;;;4954391;28;96900;-67
2022/05/20 03:44:52;;;;;;;2.17;1.50;;;16.90;99.90;17.00;101079.00;;;;4954951;28;105640;-67
2022/05/20 03:47:19;;;;;;;3.63;1.35;;;16.90;99.90;17.00;101075.00;;;;4955116;28;118003;-66
2022/05/20 03:49:50;;;;;;;1.70;1.60;;;16.90;99.90;17.00;101078.00;;;;4954817;28;110326;-66
2022/05/20 03:52:16;;;;;;;1.80;1.45;;;16.90;99.90;17.00;101074.00;;;;4955428;28;108836;-66
2022/05/20 03:54:42;;;;;;;1.23;0.98;;;16.90;99.90;17.00;101079.00;;;;4970018;28;94762;-66
2022/05/20 03:57:09;;;;;;;1.20;0.95;;;16.90;99.90;17.10;101074.00;;;;4955613;28;88551;-66
2022/05/20 03:59:36;;;;;;;1.38;1.20;;;16.90;99.90;17.10;101071.00;;;;4955008;28;87657;-67
2022/05/20 04:02:06;;;;;;;1.58;1.48;;;17.00;99.90;17.20;101076.00;;;;4955810;28;87909;-68
2022/05/20 04:04:42;;;;;;;1.60;1.50;;;17.00;99.90;17.20;101065.00;;;;4954758;28;90194;-67
2022/05/20 04:07:13;;;;;;;1.58;1.48;;;17.10;99.90;17.30;101077.00;;;;4936633;28;89190;-66
2022/05/20 04:09:39;;;;;;;2.35;1.83;;;17.20;99.90;17.40;101086.00;;;;4955185;28;87668;-68
2022/05/20 04:12:42;;;;;;;1.38;1.27;;;17.20;99.90;17.40;101088.00;;;;4955359;28;87684;-66
2022/05/20 04:15:14;;;;;;;1.70;1.33;;;17.30;99.90;17.50;101101.00;;;;4935292;28;117981;-66
2022/05/20 04:17:40;;;;;;;6.90;1.83;;;17.30;99.90;17.50;101092.00;;;;4955064;28;88780;-66
2022/05/20 04:20:08;;;;;;;1.58;1.48;;;17.40;99.90;17.60;101109.00;;;;4974071;28;91099;-66
2022/05/20 04:22:37;;;;;;;1.70;1.23;;;17.40;99.90;17.60;101107.00;;;;4950646;28;91781;-66
2022/05/20 04:25:05;;;;;;;3.83;1.45;;;17.50;99.90;17.70;101100.00;;;;4974198;28;87930;-66
2022/05/20 04:27:31;;;;;;;1.48;1.35;;;17.50;99.90;17.70;101109.00;;;;4973123;28;88651;-66
2022/05/20 04:29:57;;;;;;;2.03;1.60;;;17.60;99.90;17.80;101110.00;;;;4970922;28;88787;-68
2022/05/20 04:32:23;;;;;;;2.03;1.23;;;17.60;99.90;17.80;101118.00;;;;4962987;28;99361;-67
2022/05/20 04:34:49;;;;;;;1.50;1.40;;;17.70;99.90;17.90;101117.00;;;;4970957;28;116123;-67
2022/05/20 04:37:15;;;;;;;3.17;1.38;;;17.70;99.90;18.00;101117.00;;;;4969782;28;117358;-66
2022/05/20 04:39:41;;;;;;;1.98;1.75;;;17.80;99.90;18.10;101119.00;;;;4971075;28;110235;-66
2022/05/20 04:47:53;;;;;;;2.70;1.95;;;18.00;99.90;18.30;101119.00;;;;4969600;28;87126;-67
2022/05/20 04:50:19;;;;;;;2.85;1.60;;;18.10;99.90;18.30;101119.00;;;;4970239;28;110148;-66
2022/05/20 04:52:45;;;;;;;1.65;1.55;;;18.20;99.90;18.40;101129.00;;;;4964277;28;107738;-66
2022/05/20 04:55:11;;;;;;;1.70;1.40;;;18.30;99.90;18.50;101131.00;;;;4973834;28;118721;-67
2022/05/20 04:57:45;;;;;;;2.33;1.42;;;18.30;99.90;18.70;101132.00;;;;4974581;28;89052;-66
2022/05/20 05:00:28;;;;;;;2.58;1.67;;;18.50;99.90;18.80;101139.00;;;;4975121;28;87927;-66
2022/05/20 05:02:55;;;;;;;4.53;1.40;;;18.60;99.90;19.00;101136.00;;;;4946189;28;87927;-67
2022/05/20 05:05:27;;;;;;;2.55;1.65;;;18.80;99.90;19.10;101144.00;;;;4974558;28;88858;-67
2022/05/20 05:07:55;;;;;;;3.83;1.73;;;18.90;99.90;19.30;101150.00;;;;4975442;28;88849;-67
2022/05/20 05:10:28;;;;;;;1.85;1.52;;;19.00;99.90;19.30;101154.00;;;;4977362;28;105025;-66
2022/05/20 05:12:55;;;;;;;2.35;1.52;;;19.20;99.90;19.40;101160.00;;;;4959944;28;87261;-68
2022/05/20 05:15:21;;;;;;;4.10;2.95;;;19.20;99.90;19.40;101155.00;;;;4958138;28;88125;-67
2022/05/20 05:20:32;;;;;;;2.05;1.70;;;19.30;99.90;19.60;101149.00;;;;4954888;28;88605;-68
2022/05/20 05:22:58;;;;;;;2.40;1.63;;;19.40;99.90;19.70;101165.00;;;;4957550;28;87786;-67
2022/05/20 05:25:27;;;;;;;1.70;1.60;;;19.50;99.90;19.70;101175.00;;;;4957321;28;87812;-66
2022/05/20 05:27:53;;;;;;;3.88;1.70;;;19.60;99.90;19.80;101164.00;;;;4957397;28;89305;-68
2022/05/20 05:30:19;;;;;;;3.67;2.13;;;19.60;99.90;19.90;101167.00;;;;4957824;28;90599;-66
2022/05/20 05:32:45;;;;;;;3.70;2.42;;;19.70;99.90;20.00;101164.00;;;;4957638;28;87647;-68
2022/05/20 05:35:15;;;;;;;2.05;1.85;;;19.80;99.90;20.10;101177.00;;;;4956558;28;117254;-66
2022/05/20 05:37:42;;;;;;;2.65;2.30;;;19.90;99.90;20.20;101181.00;;;;4972022;28;87658;-66
2022/05/20 05:40:14;;;;;;;8.35;2.30;;;20.00;99.90;20.20;101178.00;;;;4958010;28;87725;-67
2022/05/20 05:42:42;;;;;;;5.13;3.15;;;20.00;99.90;20.20;101178.00;;;;4957193;28;87996;-66
2022/05/20 05:45:10;;;;;;;2.33;1.98;;;20.10;99.90;20.30;101181.00;;;;4956868;28;88798;-68
2022/05/20 05:47:35;;;;;;;3.45;2.13;;;20.10;99.90;20.40;101183.00;;;;4957071;28;89730;-67
2022/05/20 05:50:01;;;;;;;5.03;2.80;;;20.20;99.90;20.40;101185.00;;;;4956414;28;110906;-67
2022/05/20 05:52:27;;;;;;;4.35;2.38;;;20.20;99.90;20.40;101191.00;;;;4957640;28;87554;-67
2022/05/20 05:54:53;;;;;;;7.40;2.85;;;20.20;99.90;20.50;101190.00;;;;4967761;28;87732;-66
2022/05/20 05:57:18;;;;;;;6.28;2.65;;;20.30;99.90;20.60;101187.00;;;;4971230;28;118113;-68
2022/05/20 05:59:44;;;;;;;2.08;1.77;;;20.40;99.90;20.70;101186.00;;;;4957526;28;87948;-67
2022/05/20 06:02:10;;;;;;;3.50;2.55;;;20.50;99.90;20.70;101184.00;;;;4957500;28;87057;-65
2022/05/20 06:04:36;;;;;;;2.88;2.20;;;20.50;99.90;20.70;101192.00;;;;4955904;28;92606;-65
2022/05/20 06:07:04;;;;;;;3.05;2.20;;;20.50;99.90;20.60;101180.00;;;;4956099;28;106235;-66
2022/05/20 06:09:31;;;;;;;4.35;2.67;;;20.50;99.90;20.60;101164.00;;;;4957328;28;88622;-65
2022/05/20 06:11:57;;;;;;;4.22;3.05;;;20.40;99.90;20.60;101177.00;;;;4956738;28;87727;-67
2022/05/20 06:14:23;;;;;;;7.43;2.70;;;20.40;99.90;20.60;101173.00;;;;4957661;28;88340;-66
2022/05/20 06:16:48;;;;;;;5.28;2.40;;;20.40;99.90;20.60;101174.00;;;;4955455;28;118656;-67
2022/05/20 06:19:14;;;;;;;6.78;2.97;;;20.50;99.90;20.70;101164.00;;;;4957371;28;87849;-65
2022/05/20 06:21:40;;;;;;;3.15;2.33;;;20.50;99.90;20.80;101167.00;;;;4956876;28;87656;-67
2022/05/20 06:24:12;;;;;;;3.20;1.85;;;20.60;99.90;20.80;101166.00;;;;4955679;28;118260;-67
2022/05/20 06:26:41;;;;;;;4.55;2.03;;;20.60;99.90;20.90;101163.00;;;;4971651;28;87702;-67
2022/05/20 06:29:07;;;;;;;2.15;1.92;;;20.70;99.90;21.00;101168.00;;;;4957507;28;87816;-66
2022/05/20 06:31:33;;;;;;;1.83;1.65;;;20.80;99.90;21.10;101166.00;;;;4955566;28;109131;-66
2022/05/20 06:33:59;;;;;;;3.28;2.53;;;20.90;99.90;21.10;101171.00;;;;4955592;28;119801;-66
2022/05/20 06:41:55;;;;;;;3.67;3.00;;;21.00;99.90;21.10;101173.00;;;;4954332;28;87682;-66
2022/05/20 06:44:24;;;;;;;2.60;2.22;;;20.90;99.90;21.10;101166.00;;;;4955170;28;117845;-66
2022/05/20 06:46:50;;;;;;;3.72;2.78;;;20.90;99.90;21.10;101181.00;;;;4955744;28;88897;-65
2022/05/20 06:49:17;;;;;;;2.38;2.17;;;20.90;99.90;21.00;101177.00;;;;4956511;28;87844;-67
2022/05/20 06:51:42;;;;;;;3.45;2.47;;;20.90;99.90;21.00;101173.00;;;;4955760;28;107560;-66
2022/05/20 06:54:11;;;;;;;2.70;2.40;;;20.90;99.90;21.10;101173.00;;;;4959094;28;89373;-66
2022/05/20 06:56:38;;;;;;;2.88;2.33;;;20.90;99.90;21.10;101173.00;;;;4955922;28;88034;-66
2022/05/20 06:59:06;;;;;;;4.20;2.78;;;20.90;99.90;21.10;101171.00;;;;4971222;28;88557;-68
2022/05/20 07:01:33;;;;;;;3.50;2.40;;;20.90;99.90;21.20;101176.00;;;;4956677;28;87709;-66
2022/05/20 07:03:59;;;;;;;2.75;2.22;;;21.00;99.90;21.20;101174.00;;;;4937640;28;100866;-67
2022/05/20 07:06:26;;;;;;;2.38;2.17;;;21.00;99.90;21.30;101173.00;;;;4954882;28;117760;-67
2022/05/20 07:08:52;;;;;;;4.80;2.47;;;21.10;99.90;21.30;101171.00;;;;4956843;28;87757;-67
2022/05/20 07:11:22;;;;;;;4.63;2.95;;;21.10;99.90;21.40;101165.00;;;;4955313;28;108714;-65
2022/05/20 07:13:50;;;;;;;3.28;2.95;;;21.10;99.90;21.50;101158.00;;;;4955429;28;98892;-65
2022/05/20 07:16:16;;;;;;;3.92;2.20;;;21.20;99.90;21.70;101149.00;;;;4955794;28;88002;-66
2022/05/20 07:18:45;;;;;;;5.22;2.95;;;21.40;99.90;22.10;101157.00;;;;4954846;28;110301;-69
2022/05/20 07:21:29;;;;;;;3.08;2.78;;;21.70;99.90;22.40;101143.00;;;;4955429;28;108030;-67
2022/05/20 07:23:54;;;;;;;2.28;2.05;;;22.10;99.90;22.80;101154.00;;;;4955178;28;89085;-67
2022/05/20 07:26:20;;;;;;;2.85;2.38;;;22.50;99.90;23.10;101163.00;;;;4954995;28;118366;-68
2022/05/20 07:28:46;;;;;;;4.47;3.42;;;22.80;99.90;23.30;101162.00;;;;4955023;28;90750;-69
2022/05/20 07:31:30;;;;;;;5.50;3.28;;;23.00;99.90;23.60;101164.00;;;;4956304;28;87755;-67
2022/05/20 07:33:56;;;;;;;3.63;2.63;;;23.20;99.90;23.70;101162.00;;;;4955051;28;116267;-69
2022/05/20 07:36:23;;;;;;;5.20;2.90;;;23.40;99.00;23.80;101164.00;;;;4970451;28;88081;-67
2022/05/20 07:38:50;;;;;;;4.13;3.20;;;23.50;96.90;23.90;101169.00;;;;4955252;28;87647;-69
2022/05/20 07:41:15;;;;;;;3.13;2.45;;;23.60;96.40;24.00;101168.00;;;;4956426;28;86862;-68
2022/05/20 07:43:41;;;;;;;4.20;2.33;;;23.70;95.90;24.10;101163.00;;;;4946324;28;117903;-67
2022/05/20 07:46:07;;;;;;;4.47;2.95;;;23.80;95.70;24.20;101172.00;;;;4935102;28;117652;-67
2022/05/20 07:48:33;;;;;;;3.20;2.90;;;23.90;95.00;24.30;101161.00;;;;4934158;28;109099;-67
2022/05/20 07:51:03;;;;;;;2.42;2.25;;;24.00;94.10;24.40;101164.00;;;;4936610;28;88089;-67
2022/05/20 07:53:54;;;;;;;3.70;3.22;;;24.10;93.40;24.50;101157.00;;;;4934780;28;94621;-68
2022/05/20 07:56:39;;;;;;;3.88;3.28;;;24.20;92.30;24.40;101144.00;;;;4966264;28;87760;-69
2022/05/20 07:59:19;;;;;;;4.85;3.90;;;24.20;91.70;24.40;101133.00;;;;4954626;28;99234;-68
2022/05/20 08:01:49;;;;;;;4.47;3.20;;;24.20;91.30;24.30;101132.00;;;;4951657;28;91269;-69
2022/05/20 08:07:10;;;;;;;2.67;2.33;;;24.10;90.20;24.20;101136.00;;;;4932884;28;87498;-67
2022/05/20 08:09:36;;;;;;;4.53;3.25;;;24.00;89.70;24.20;101135.00;;;;4935802;28;87850;-68
2022/05/20 08:12:02;;;;;;;6.40;2.97;;;24.00;90.20;24.30;101124.00;;;;4935090;28;107679;-69
2022/05/20 08:14:28;;;;;;;3.60;2.42;;;24.10;89.70;24.40;101129.00;;;;4934664;28;94904;-67
2022/05/20 08:16:58;;;;;;;2.53;2.30;;;24.20;89.80;24.70;101137.00;;;;4935486;28;89811;-69
2022/05/20 08:19:25;;;;;;;4.25;2.92;;;24.40;88.90;24.90;101130.00;;;;4935399;28;88036;-68
2022/05/20 08:21:50;;;;;;;2.88;2.42;;;24.60;87.30;25.00;101127.00;;;;4935770;28;87930;-65
2022/05/20 08:24:16;;;;;;;4.47;2.97;;;24.70;84.40;25.10;101133.00;;;;4941504;28;117412;-69
2022/05/20 08:26:42;;;;;;;4.07;3.00;;;24.80;82.90;25.10;101125.00;;;;4954609;28;117341;-67
2022/05/20 08:29:26;;;;;;;4.07;2.85;;;24.90;82.00;25.20;101124.00;;;;4957984;28;87716;-68
2022/05/20 08:31:51;;;;;;;4.43;3.38;;;25.00;80.50;25.20;101111.00;;;;4949738;28;101618;-67
2022/05/20 08:34:17;;;;;;;3.35;3.05;;;25.00;78.40;25.10;101114.00;;;;4958725;28;91281;-67
2022/05/20 08:36:43;;;;;;;3.65;2.50;;;25.00;77.40;25.10;101106.00;;;;4957273;28;116413;-68
2022/05/20 08:39:12;;;;;;;4.50;2.83;;;24.90;78.10;25.20;101108.00;;;;4957663;28;88751;-67
2022/05/20 08:41:49;;;;;;;3.50;2.75;;;25.00;78.20;25.30;101093.00;;;;4958461;28;87804;-68
2022/05/20 08:44:20;;;;;;;4.70;4.03;;;25.00;77.70;25.30;101106.00;;;;4940048;28;88078;-67
2022/05/20 08:46:48;;;;;;;4.28;2.95;;;25.10;76.80;25.30;101091.00;;;;4957563;28;97613;-70
2022/05/20 08:49:22;;;;;;;8.32;2.65;;;25.10;75.60;25.30;101085.00;;;;4958842;28;87561;-69
2022/05/20 08:51:53;;;;;;;3.17;2.65;;;25.10;74.60;25.40;101090.00;;;;4972692;28;107849;-68
2022/05/20 08:54:19;;;;;;;2.53;2.30;;;25.20;75.00;25.60;101095.00;;;;4940896;28;104271;-68
2022/05/20 08:56:46;;;;;;;2.22;2.00;;;25.30;75.10;26.00;101091.00;;;;4973393;28;96517;-68
2022/05/20 08:59:18;;;;;;;3.92;2.67;;;25.60;74.80;26.30;101087.00;;;;4958377;28;87647;-69
2022/05/20 09:01:51;;;;;;;3.08;2.72;;;25.80;74.00;26.50;101093.00;;;;4972714;28;87849;-68
2022/05/20 09:04:24;;;;;;;3.40;2.58;;;26.10;73.10;26.70;101090.00;;;;4956824;28;108810;-68
2022/05/20 09:07:16;;;;;;;3.83;2.13;;;26.30;71.90;26.70;101102.00;;;;4958250;28;88860;-67
2022/05/20 09:09:53;;;;;;;6.32;2.95;;;26.40;70.10;26.70;101093.00;;;;4923043;28;106631;-68
2022/05/20 09:12:38;;;;;;;3.35;2.63;;;26.40;69.30;26.70;101099.00;;;;4959006;28;88410;-67
2022/05/20 09:18:08;;;;;;;4.57;3.55;;;26.40;68.40;26.80;101091.00;;;;4962521;28;87848;-68
2022/05/20 09:20:33;;;;;;;2.58;2.38;;;26.50;68.60;27.00;101099.00;;;;4972868;28;87882;-68
2022/05/20 09:23:04;;;;;;;4.55;2.85;;;26.70;68.20;27.10;101090.00;;;;4972919;28;87118;-70
2022/05/20 09:25:34;;;;;;;3.17;2.28;;;26.70;67.20;26.90;101093.00;;;;4956699;28;88708;-68
2022/05/20 09:28:33;;;;;;;3.03;2.83;;;26.70;66.50;27.00;101105.00;;;;4956370;28;88687;-69
2022/05/20 09:31:16;;;;;;;6.10;2.92;;;26.70;66.80;26.90;101105.00;;;;4954777;28;94909;-67
2022/05/20 09:34:11;;;;;;;2.65;2.28;;;26.70;65.40;26.80;101105.00;;;;4972529;28;87766;-68
2022/05/20 09:36:58;;;;;;;4.95;3.63;;;26.60;65.60;26.60;101105.00;;;;4938568;28;87818;-68
2022/05/20 09:39:33;;;;;;;2.50;2.20;;;26.40;65.50;26.50;101094.00;;;;4956999;28;88045;-67
2022/05/20 09:42:10;;;;;;;3.10;2.75;;;26.30;66.40;26.40;101101.00;;;;4972009;28;92849;-70
2022/05/20 09:44:46;;;;;;;9.05;3.58;;;26.10;66.90;26.20;101090.00;;;;4957297;28;87584;-69
2022/05/20 09:47:39;;;;;;;5.78;3.58;;;26.00;67.00;26.10;101085.00;;;;4957317;28;88446;-69
2022/05/20 09:50:17;;;;;;;4.35;3.35;;;25.90;67.80;25.90;101077.00;;;;4938574;28;111347;-69
2022/05/20 09:53:28;;;;;;;4.55;3.30;;;25.70;68.60;25.70;101074.00;;;;4957504;28;88180;-68
2022/05/20 09:56:17;;;;;;;4.25;3.75;;;25.60;69.30;25.40;101084.00;;;;4971767;28;87927;-68
2022/05/20 09:59:28;;;;;;;4.38;3.58;;;25.30;70.30;25.30;101062.00;;;;4956441;28;88883;-69
2022/05/20 10:02:08;;;;;;;3.00;2.70;;;25.10;71.40;25.30;101066.00;;;;4957367;28;88150;-69
2022/05/20 10:04:53;;;;;;;4.35;3.38;;;25.00;72.10;25.40;101071.00;;;;4971835;28;88744;-71
2022/05/20 10:07:36;;;;;;;6.28;3.83;;;25.10;72.50;25.40;101068.00;;;;4956707;28;91497;-71
2022/05/20 10:10:15;;;;;;;5.20;3.53;;;25.10;72.30;25.40;101068.00;;;;4972055;28;87966;-68
2022/05/20 10:12:46;;;;;;;4.18;3.45;;;25.10;72.30;25.30;101065.00;;;;4971651;28;87573;-68
2022/05/20 10:15:28;;;;;;;4.90;3.47;;;25.00;72.60;25.20;101061.00;;;;4957181;28;102963;-67
2022/05/20 10:18:30;;;;;;;5.18;3.20;;;25.00;73.00;25.30;101057.00;;;;4937839;28;102080;-69
2022/05/20 10:21:54;;;;;;;6.13;3.65;;;25.00;73.20;25.40;101051.00;;;;4948060;28;88100;-72
2022/05/20 10:24:51;;;;;;;3.97;3.10;;;25.10;72.90;25.40;101051.00;;;;4951057;28;110463;-74
2022/05/20 10:27:22;;;;;;;7.15;4.65;;;25.20;72.60;25.50;101042.00;;;;4963105;28;101898;-70
2022/05/20 10:33:12;;;;;;;4.45;3.33;;;25.20;72.80;25.40;101046.00;;;;4967534;28;87942;-71
2022/05/20 10:36:10;;;;;;;3.72;2.85;;;25.10;73.00;25.40;101040.00;;;;4956254;28;88437;-71
2022/05/20 10:38:57;;;;;;;2.42;2.13;;;25.10;73.10;25.40;101037.00;;;;4971007;28;87747;-71
2022/05/20 10:41:55;;;;;;;3.28;2.78;;;25.10;72.40;25.30;101031.00;;;;4971145;28;93768;-68
2022/05/20 10:51:17;;;;;;;2.75;2.38;;;25.20;73.50;26.00;101018.00;;;;4952799;28;87867;-74
2022/05/20 10:53:55;;;;;;;4.78;3.85;;;25.50;73.60;26.30;101016.00;;;;4956328;28;87816;-73
2022/05/20 10:56:57;;;;;;;4.70;3.35;;;25.80;71.90;26.60;101000.00;;;;4955281;28;88731;-71
2022/05/20 10:59:51;;;;;;;5.10;3.20;;;26.10;71.60;27.00;100993.00;;;;4956764;28;87913;-71
2022/05/20 11:03:27;;;;;;;3.10;2.78;;;26.40;70.90;27.30;100994.00;;;;4946788;28;87990;-72
2022/05/20 11:06:22;;;;;;;5.53;3.58;;;26.80;68.80;27.80;100990.00;;;;4931310;28;88095;-72
2022/05/20 11:09:22;;;;;;;4.53;2.55;;;27.20;66.60;28.10;100974.00;;;;4949370;28;90554;-73
2022/05/20 11:11:59;;;;;;;3.10;2.63;;;27.50;65.00;28.30;100966.00;;;;4938620;28;87950;-70
2022/05/20 11:15:00;;;;;;;2.88;2.38;;;27.80;63.00;28.30;100972.00;;;;4956787;28;87716;-70
2022/05/20 11:18:11;;;;;;;3.42;2.90;;;27.90;61.70;28.40;100956.00;;;;4956051;28;86997;-70
2022/05/20 11:20:43;;;;;;;4.65;2.28;;;27.90;61.00;28.60;100950.00;;;;4955466;28;87825;-72
2022/05/20 11:23:22;;;;;;;4.40;2.60;;;28.10;61.00;28.90;100953.00;;;;4955571;28;88611;-72
2022/05/20 11:26:36;;;;;;;2.47;2.13;;;28.30;59.60;29.30;100951.00;;;;4936111;28;101414;-72
2022/05/20 11:29:20;;;;;;;2.45;2.25;;;28.60;59.40;29.90;100953.00;;;;4918128;28;87886;-73
2022/05/20 11:32:01;;;;;;;2.70;1.83;;;29.20;58.80;30.50;100935.00;;;;4955496;28;87813;-73
2022/05/20 11:34:46;;;;;;;2.40;2.20;;;29.70;58.30;30.90;100920.00;;;;4938766;28;87866;-74
2022/05/20 11:37:59;;;;;;;2.33;1.95;;;30.20;56.30;31.40;100921.00;;;;4969300;28;103266;-71
2022/05/20 11:40:31;;;;;;;3.40;2.05;;;30.60;55.00;31.90;100922.00;;;;4956066;28;87550;-71
2022/05/20 11:43:02;;;;;;;1.83;1.70;;;31.10;54.30;31.90;100905.00;;;;4936237;28;89636;-73
2022/05/20 11:45:43;;;;;;;2.75;2.20;;;31.30;52.20;31.70;100908.00;;;;4955820;28;88801;-70
2022/05/20 11:48:46;;;;;;;1.95;1.70;;;31.20;51.40;31.60;100904.00;;;;4955554;28;88102;-69